sensor_id;sensor_type;location;lat;lon;timestamp;P1;durP1;ratioP1;P2;durP2;ratioP2
63008;SDS011;49099;28.428;-16.488;2023-04-15T00:01:06;17.75;;;3.35;;
63008;SDS011;49099;28.428;-16.488;2023-04-15T00:03:34;15.45;;;3.40;;
63008;SDS011;49099;28.428;-16.488;2023-04-15T00:06:02;14.82;;;3.08;;
63008;SDS011;49099;28.428;-16.488;2023-04-15T00:08:29;17.08;;;3.25;;
63008;SDS011;49099;28.428;-16.488;2023-04-15T00:10:57;15.45;;;3.22;;
63008;SDS011;49099;28.428;-16.488;2023-04-15T00:13:28;15.77;;;3.25;;
63008;SDS011;49099;28.428;-16.488;2023-04-15T00:15:56;19.30;;;3.78;;
63008;SDS011;49099;28.428;-16.488;2023-04-15T00:18:23;14.70;;;3.20;;
63008;SDS011;49099;28.428;-16.488;2023-04-15T00:20:51;21.05;;;4.00;;
63008;SDS011;49099;28.428;-16.488;2023-04-15T00:23:18;12.70;;;3.13;;
63008;SDS011;49099;28.428;-16.488;2023-04-15T00:25:46;20.20;;;3.72;;
63008;SDS011;49099;28.428;-16.488;2023-04-15T00:28:13;15.10;;;3.50;;
63008;SDS011;49099;28.428;-16.488;2023-04-15T00:30:40;14.20;;;2.95;;
63008;SDS011;49099;28.428;-16.488;2023-04-15T00:33:08;20.17;;;3.65;;
63008;SDS011;49099;28.428;-16.488;2023-04-15T00:35:35;14.45;;;3.17;;
63008;SDS011;49099;28.428;-16.488;2023-04-15T00:38:03;19.25;;;3.55;;
63008;SDS011;49099;28.428;-16.488;2023-04-15T00:40:32;12.82;;;2.92;;
63008;SDS011;49099;28.428;-16.488;2023-04-15T00:42:59;17.90;;;3.67;;
63008;SDS011;49099;28.428;-16.488;2023-04-15T00:45:26;13.65;;;3.15;;
63008;SDS011;49099;28.428;-16.488;2023-04-15T00:47:54;16.05;;;3.75;;
63008;SDS011;49099;28.428;-16.488;2023-04-15T00:50:22;19.17;;;3.67;;
63008;SDS011;49099;28.428;-16.488;2023-04-15T00:52:49;17.10;;;3.78;;
63008;SDS011;49099;28.428;-16.488;2023-04-15T00:55:17;14.77;;;3.28;;
63008;SDS011;49099;28.428;-16.488;2023-04-15T00:57:44;15.15;;;3.40;;
63008;SDS011;49099;28.428;-16.488;2023-04-15T01:00:12;14.35;;;3.80;;
63008;SDS011;49099;28.428;-16.488;2023-04-15T01:02:40;17.25;;;3.45;;
63008;SDS011;49099;28.428;-16.488;2023-04-15T01:05:07;17.67;;;3.67;;
63008;SDS011;49099;28.428;-16.488;2023-04-15T01:07:34;18.30;;;3.65;;
63008;SDS011;49099;28.428;-16.488;2023-04-15T01:10:03;16.10;;;3.28;;
63008;SDS011;49099;28.428;-16.488;2023-04-15T01:12:31;17.70;;;3.70;;
63008;SDS011;49099;28.428;-16.488;2023-04-15T01:14:59;18.35;;;3.33;;
63008;SDS011;49099;28.428;-16.488;2023-04-15T01:17:27;20.02;;;3.90;;
63008;SDS011;49099;28.428;-16.488;2023-04-15T01:19:55;17.20;;;3.20;;
63008;SDS011;49099;28.428;-16.488;2023-04-15T01:22:26;19.13;;;3.63;;
63008;SDS011;49099;28.428;-16.488;2023-04-15T01:24:56;18.15;;;3.03;;
63008;SDS011;49099;28.428;-16.488;2023-04-15T01:27:30;16.52;;;3.15;;
63008;SDS011;49099;28.428;-16.488;2023-04-15T01:29:58;19.73;;;3.20;;
63008;SDS011;49099;28.428;-16.488;2023-04-15T01:32:25;19.17;;;3.58;;
63008;SDS011;49099;28.428;-16.488;2023-04-15T01:34:52;18.55;;;3.65;;
63008;SDS011;49099;28.428;-16.488;2023-04-15T01:37:23;21.80;;;3.33;;
63008;SDS011;49099;28.428;-16.488;2023-04-15T01:39:50;17.60;;;3.42;;
63008;SDS011;49099;28.428;-16.488;2023-04-15T01:42:20;14.88;;;3.00;;
63008;SDS011;49099;28.428;-16.488;2023-04-15T01:44:47;18.33;;;3.00;;
63008;SDS011;49099;28.428;-16.488;2023-04-15T01:47:14;19.42;;;2.90;;
63008;SDS011;49099;28.428;-16.488;2023-04-15T01:49:42;16.15;;;3.38;;
63008;SDS011;49099;28.428;-16.488;2023-04-15T01:52:09;15.75;;;3.05;;
63008;SDS011;49099;28.428;-16.488;2023-04-15T01:54:36;14.60;;;3.22;;
63008;SDS011;49099;28.428;-16.488;2023-04-15T01:57:03;13.55;;;2.80;;
63008;SDS011;49099;28.428;-16.488;2023-04-15T01:59:31;13.93;;;3.10;;
63008;SDS011;49099;28.428;-16.488;2023-04-15T02:01:58;19.83;;;2.97;;
63008;SDS011;49099;28.428;-16.488;2023-04-15T02:04:26;15.52;;;3.15;;
63008;SDS011;49099;28.428;-16.488;2023-04-15T02:06:53;16.63;;;3.63;;
63008;SDS011;49099;28.428;-16.488;2023-04-15T02:09:20;21.63;;;3.10;;
63008;SDS011;49099;28.428;-16.488;2023-04-15T02:11:47;16.35;;;3.28;;
63008;SDS011;49099;28.428;-16.488;2023-04-15T02:14:14;14.52;;;3.00;;
63008;SDS011;49099;28.428;-16.488;2023-04-15T02:16:41;12.40;;;2.88;;
63008;SDS011;49099;28.428;-16.488;2023-04-15T02:19:09;18.35;;;3.10;;
63008;SDS011;49099;28.428;-16.488;2023-04-15T02:21:36;15.45;;;3.10;;
63008;SDS011;49099;28.428;-16.488;2023-04-15T02:24:03;19.20;;;3.00;;
63008;SDS011;49099;28.428;-16.488;2023-04-15T02:26:30;14.50;;;2.95;;
63008;SDS011;49099;28.428;-16.488;2023-04-15T02:28:58;13.23;;;2.58;;
63008;SDS011;49099;28.428;-16.488;2023-04-15T02:31:32;14.20;;;2.92;;
63008;SDS011;49099;28.428;-16.488;2023-04-15T02:34:02;15.85;;;3.20;;
63008;SDS011;49099;28.428;-16.488;2023-04-15T02:36:30;16.20;;;3.17;;
63008;SDS011;49099;28.428;-16.488;2023-04-15T02:38:57;22.17;;;3.13;;
63008;SDS011;49099;28.428;-16.488;2023-04-15T02:41:25;12.55;;;2.85;;
63008;SDS011;49099;28.428;-16.488;2023-04-15T02:43:54;12.50;;;3.08;;
63008;SDS011;49099;28.428;-16.488;2023-04-15T02:46:21;17.80;;;3.55;;
63008;SDS011;49099;28.428;-16.488;2023-04-15T02:48:49;20.02;;;3.40;;
63008;SDS011;49099;28.428;-16.488;2023-04-15T02:51:17;15.98;;;3.42;;
63008;SDS011;49099;28.428;-16.488;2023-04-15T02:53:46;20.83;;;3.60;;
63008;SDS011;49099;28.428;-16.488;2023-04-15T02:56:14;14.02;;;2.78;;
63008;SDS011;49099;28.428;-16.488;2023-04-15T02:58:43;15.88;;;3.10;;
63008;SDS011;49099;28.428;-16.488;2023-04-15T03:01:11;14.70;;;2.80;;
63008;SDS011;49099;28.428;-16.488;2023-04-15T03:03:39;16.55;;;3.03;;
63008;SDS011;49099;28.428;-16.488;2023-04-15T03:06:06;16.75;;;3.53;;
63008;SDS011;49099;28.428;-16.488;2023-04-15T03:08:34;19.10;;;2.92;;
63008;SDS011;49099;28.428;-16.488;2023-04-15T03:11:01;15.27;;;2.83;;
63008;SDS011;49099;28.428;-16.488;2023-04-15T03:13:29;17.33;;;2.97;;
63008;SDS011;49099;28.428;-16.488;2023-04-15T03:15:56;14.70;;;3.03;;
63008;SDS011;49099;28.428;-16.488;2023-04-15T03:18:23;12.48;;;2.67;;
63008;SDS011;49099;28.428;-16.488;2023-04-15T03:20:51;18.40;;;3.55;;
63008;SDS011;49099;28.428;-16.488;2023-04-15T03:23:18;17.65;;;3.38;;
63008;SDS011;49099;28.428;-16.488;2023-04-15T03:25:45;16.30;;;2.70;;
63008;SDS011;49099;28.428;-16.488;2023-04-15T03:28:12;17.38;;;3.10;;
63008;SDS011;49099;28.428;-16.488;2023-04-15T03:30:39;17.20;;;2.95;;
63008;SDS011;49099;28.428;-16.488;2023-04-15T03:33:07;17.80;;;4.07;;
63008;SDS011;49099;28.428;-16.488;2023-04-15T03:35:34;21.90;;;3.50;;
63008;SDS011;49099;28.428;-16.488;2023-04-15T03:38:01;19.10;;;3.35;;
63008;SDS011;49099;28.428;-16.488;2023-04-15T03:40:29;14.82;;;2.60;;
63008;SDS011;49099;28.428;-16.488;2023-04-15T03:42:56;17.45;;;3.35;;
63008;SDS011;49099;28.428;-16.488;2023-04-15T03:45:23;15.60;;;3.15;;
63008;SDS011;49099;28.428;-16.488;2023-04-15T03:47:51;16.17;;;2.75;;
63008;SDS011;49099;28.428;-16.488;2023-04-15T03:50:18;15.98;;;2.80;;
63008;SDS011;49099;28.428;-16.488;2023-04-15T03:52:45;16.10;;;3.20;;
63008;SDS011;49099;28.428;-16.488;2023-04-15T03:55:14;15.48;;;3.20;;
63008;SDS011;49099;28.428;-16.488;2023-04-15T03:57:42;13.75;;;2.95;;
63008;SDS011;49099;28.428;-16.488;2023-04-15T04:00:09;17.63;;;2.95;;
63008;SDS011;49099;28.428;-16.488;2023-04-15T04:02:36;13.15;;;2.60;;
63008;SDS011;49099;28.428;-16.488;2023-04-15T04:05:04;14.05;;;2.70;;
63008;SDS011;49099;28.428;-16.488;2023-04-15T04:07:31;15.90;;;3.33;;
63008;SDS011;49099;28.428;-16.488;2023-04-15T04:09:58;14.60;;;3.58;;
63008;SDS011;49099;28.428;-16.488;2023-04-15T04:12:26;15.27;;;3.33;;
63008;SDS011;49099;28.428;-16.488;2023-04-15T04:14:53;15.48;;;3.15;;
63008;SDS011;49099;28.428;-16.488;2023-04-15T04:17:20;16.25;;;3.20;;
63008;SDS011;49099;28.428;-16.488;2023-04-15T04:19:47;13.95;;;2.75;;
63008;SDS011;49099;28.428;-16.488;2023-04-15T04:22:14;14.07;;;3.00;;
63008;SDS011;49099;28.428;-16.488;2023-04-15T04:24:41;19.73;;;3.30;;
63008;SDS011;49099;28.428;-16.488;2023-04-15T04:27:08;16.60;;;2.75;;
63008;SDS011;49099;28.428;-16.488;2023-04-15T04:29:36;16.02;;;2.80;;
63008;SDS011;49099;28.428;-16.488;2023-04-15T04:32:03;13.02;;;2.80;;
63008;SDS011;49099;28.428;-16.488;2023-04-15T04:34:30;13.82;;;3.13;;
63008;SDS011;49099;28.428;-16.488;2023-04-15T04:36:58;17.67;;;3.55;;
63008;SDS011;49099;28.428;-16.488;2023-04-15T04:39:25;15.63;;;2.88;;
63008;SDS011;49099;28.428;-16.488;2023-04-15T04:41:52;17.83;;;3.00;;
63008;SDS011;49099;28.428;-16.488;2023-04-15T04:44:19;13.73;;;3.00;;
63008;SDS011;49099;28.428;-16.488;2023-04-15T04:46:46;9.70;;;2.45;;
63008;SDS011;49099;28.428;-16.488;2023-04-15T04:49:13;15.15;;;2.90;;
63008;SDS011;49099;28.428;-16.488;2023-04-15T04:51:40;13.70;;;3.03;;
63008;SDS011;49099;28.428;-16.488;2023-04-15T04:54:07;18.08;;;3.00;;
63008;SDS011;49099;28.428;-16.488;2023-04-15T04:56:35;13.50;;;2.78;;
63008;SDS011;49099;28.428;-16.488;2023-04-15T04:59:04;12.50;;;2.80;;
63008;SDS011;49099;28.428;-16.488;2023-04-15T05:01:32;12.93;;;3.33;;
63008;SDS011;49099;28.428;-16.488;2023-04-15T05:03:59;14.77;;;2.75;;
63008;SDS011;49099;28.428;-16.488;2023-04-15T05:06:27;13.93;;;2.72;;
63008;SDS011;49099;28.428;-16.488;2023-04-15T05:08:56;14.20;;;2.80;;
63008;SDS011;49099;28.428;-16.488;2023-04-15T05:11:23;12.05;;;2.83;;
63008;SDS011;49099;28.428;-16.488;2023-04-15T05:13:50;18.33;;;2.85;;
63008;SDS011;49099;28.428;-16.488;2023-04-15T05:16:17;17.63;;;2.97;;
63008;SDS011;49099;28.428;-16.488;2023-04-15T05:18:45;20.05;;;3.28;;
63008;SDS011;49099;28.428;-16.488;2023-04-15T05:21:13;18.48;;;3.30;;
63008;SDS011;49099;28.428;-16.488;2023-04-15T05:23:40;13.65;;;2.58;;
63008;SDS011;49099;28.428;-16.488;2023-04-15T05:26:07;16.15;;;2.63;;
63008;SDS011;49099;28.428;-16.488;2023-04-15T05:28:34;20.08;;;3.75;;
63008;SDS011;49099;28.428;-16.488;2023-04-15T05:31:04;19.65;;;2.90;;
63008;SDS011;49099;28.428;-16.488;2023-04-15T05:33:31;12.20;;;2.42;;
63008;SDS011;49099;28.428;-16.488;2023-04-15T05:35:59;17.92;;;3.08;;
63008;SDS011;49099;28.428;-16.488;2023-04-15T05:38:26;13.65;;;2.92;;
63008;SDS011;49099;28.428;-16.488;2023-04-15T05:40:53;13.73;;;2.78;;
63008;SDS011;49099;28.428;-16.488;2023-04-15T05:43:23;16.58;;;3.22;;
63008;SDS011;49099;28.428;-16.488;2023-04-15T05:45:50;14.70;;;2.95;;
63008;SDS011;49099;28.428;-16.488;2023-04-15T05:48:17;17.95;;;3.10;;
63008;SDS011;49099;28.428;-16.488;2023-04-15T05:50:45;15.10;;;3.17;;
63008;SDS011;49099;28.428;-16.488;2023-04-15T05:53:12;16.60;;;2.70;;
63008;SDS011;49099;28.428;-16.488;2023-04-15T05:55:39;21.88;;;3.33;;
63008;SDS011;49099;28.428;-16.488;2023-04-15T05:58:07;19.63;;;3.60;;
63008;SDS011;49099;28.428;-16.488;2023-04-15T06:00:34;17.63;;;3.05;;
63008;SDS011;49099;28.428;-16.488;2023-04-15T06:03:02;19.40;;;3.40;;
63008;SDS011;49099;28.428;-16.488;2023-04-15T06:05:30;21.60;;;3.40;;
63008;SDS011;49099;28.428;-16.488;2023-04-15T06:07:57;21.13;;;3.75;;
63008;SDS011;49099;28.428;-16.488;2023-04-15T06:10:24;17.08;;;3.05;;
63008;SDS011;49099;28.428;-16.488;2023-04-15T06:12:51;15.73;;;3.72;;
63008;SDS011;49099;28.428;-16.488;2023-04-15T06:15:19;15.30;;;3.08;;
63008;SDS011;49099;28.428;-16.488;2023-04-15T06:17:46;15.75;;;2.47;;
63008;SDS011;49099;28.428;-16.488;2023-04-15T06:20:13;20.92;;;3.67;;
63008;SDS011;49099;28.428;-16.488;2023-04-15T06:22:40;20.88;;;2.72;;
63008;SDS011;49099;28.428;-16.488;2023-04-15T06:25:07;17.42;;;2.85;;
63008;SDS011;49099;28.428;-16.488;2023-04-15T06:27:36;19.35;;;3.20;;
63008;SDS011;49099;28.428;-16.488;2023-04-15T06:30:03;13.70;;;2.83;;
63008;SDS011;49099;28.428;-16.488;2023-04-15T06:32:32;19.55;;;3.00;;
63008;SDS011;49099;28.428;-16.488;2023-04-15T06:34:59;19.17;;;3.15;;
63008;SDS011;49099;28.428;-16.488;2023-04-15T06:37:28;24.95;;;3.67;;
63008;SDS011;49099;28.428;-16.488;2023-04-15T06:39:57;20.95;;;3.28;;
63008;SDS011;49099;28.428;-16.488;2023-04-15T06:42:28;17.50;;;3.45;;
63008;SDS011;49099;28.428;-16.488;2023-04-15T06:44:55;20.95;;;3.20;;
63008;SDS011;49099;28.428;-16.488;2023-04-15T06:47:22;25.85;;;3.17;;
63008;SDS011;49099;28.428;-16.488;2023-04-15T06:49:49;24.50;;;3.85;;
63008;SDS011;49099;28.428;-16.488;2023-04-15T06:52:16;22.17;;;3.38;;
63008;SDS011;49099;28.428;-16.488;2023-04-15T06:54:43;18.83;;;3.10;;
63008;SDS011;49099;28.428;-16.488;2023-04-15T06:57:11;25.67;;;3.85;;
63008;SDS011;49099;28.428;-16.488;2023-04-15T06:59:38;27.30;;;3.30;;
63008;SDS011;49099;28.428;-16.488;2023-04-15T07:02:05;30.05;;;3.45;;
63008;SDS011;49099;28.428;-16.488;2023-04-15T07:04:38;29.50;;;3.83;;
63008;SDS011;49099;28.428;-16.488;2023-04-15T07:07:05;28.15;;;4.07;;
63008;SDS011;49099;28.428;-16.488;2023-04-15T07:09:33;28.48;;;3.97;;
63008;SDS011;49099;28.428;-16.488;2023-04-15T07:12:00;28.30;;;4.05;;
63008;SDS011;49099;28.428;-16.488;2023-04-15T07:14:28;26.02;;;3.28;;
63008;SDS011;49099;28.428;-16.488;2023-04-15T07:16:55;22.63;;;3.90;;
63008;SDS011;49099;28.428;-16.488;2023-04-15T07:19:23;25.58;;;3.60;;
63008;SDS011;49099;28.428;-16.488;2023-04-15T07:21:50;30.75;;;3.92;;
63008;SDS011;49099;28.428;-16.488;2023-04-15T07:24:17;34.28;;;4.22;;
63008;SDS011;49099;28.428;-16.488;2023-04-15T07:26:46;27.42;;;4.03;;
63008;SDS011;49099;28.428;-16.488;2023-04-15T07:29:13;22.50;;;3.60;;
63008;SDS011;49099;28.428;-16.488;2023-04-15T07:31:40;29.33;;;3.55;;
63008;SDS011;49099;28.428;-16.488;2023-04-15T07:34:07;28.67;;;4.10;;
63008;SDS011;49099;28.428;-16.488;2023-04-15T07:36:35;19.60;;;3.22;;
63008;SDS011;49099;28.428;-16.488;2023-04-15T07:39:02;21.98;;;3.95;;
63008;SDS011;49099;28.428;-16.488;2023-04-15T07:41:29;27.63;;;3.88;;
63008;SDS011;49099;28.428;-16.488;2023-04-15T07:43:57;22.27;;;3.40;;
63008;SDS011;49099;28.428;-16.488;2023-04-15T07:46:24;11.25;;;2.53;;
63008;SDS011;49099;28.428;-16.488;2023-04-15T07:48:52;17.83;;;3.40;;
63008;SDS011;49099;28.428;-16.488;2023-04-15T07:51:20;16.65;;;3.05;;
63008;SDS011;49099;28.428;-16.488;2023-04-15T07:53:48;19.23;;;3.28;;
63008;SDS011;49099;28.428;-16.488;2023-04-15T07:56:16;27.17;;;3.42;;
63008;SDS011;49099;28.428;-16.488;2023-04-15T07:58:43;17.20;;;3.30;;
63008;SDS011;49099;28.428;-16.488;2023-04-15T08:01:10;18.38;;;3.33;;
63008;SDS011;49099;28.428;-16.488;2023-04-15T08:03:38;21.77;;;3.67;;
63008;SDS011;49099;28.428;-16.488;2023-04-15T08:06:05;21.00;;;3.78;;
63008;SDS011;49099;28.428;-16.488;2023-04-15T08:08:32;21.75;;;3.50;;
63008;SDS011;49099;28.428;-16.488;2023-04-15T08:10:59;25.05;;;4.13;;
63008;SDS011;49099;28.428;-16.488;2023-04-15T08:13:27;20.75;;;3.25;;
63008;SDS011;49099;28.428;-16.488;2023-04-15T08:18:43;20.23;;;3.22;;
63008;SDS011;49099;28.428;-16.488;2023-04-15T08:21:11;28.00;;;3.70;;
63008;SDS011;49099;28.428;-16.488;2023-04-15T08:23:38;15.68;;;2.72;;
63008;SDS011;49099;28.428;-16.488;2023-04-15T08:26:06;19.58;;;3.63;;
63008;SDS011;49099;28.428;-16.488;2023-04-15T08:28:34;17.15;;;3.08;;
63008;SDS011;49099;28.428;-16.488;2023-04-15T08:31:01;19.13;;;3.15;;
63008;SDS011;49099;28.428;-16.488;2023-04-15T08:33:29;14.27;;;3.00;;
63008;SDS011;49099;28.428;-16.488;2023-04-15T08:35:56;19.52;;;3.28;;
63008;SDS011;49099;28.428;-16.488;2023-04-15T08:38:24;15.90;;;3.10;;
63008;SDS011;49099;28.428;-16.488;2023-04-15T08:40:51;18.40;;;3.25;;
63008;SDS011;49099;28.428;-16.488;2023-04-15T08:43:21;20.13;;;3.58;;
63008;SDS011;49099;28.428;-16.488;2023-04-15T08:45:52;20.10;;;3.25;;
63008;SDS011;49099;28.428;-16.488;2023-04-15T08:48:19;24.52;;;3.88;;
63008;SDS011;49099;28.428;-16.488;2023-04-15T08:50:47;15.27;;;3.47;;
63008;SDS011;49099;28.428;-16.488;2023-04-15T08:53:14;23.52;;;3.33;;
63008;SDS011;49099;28.428;-16.488;2023-04-15T08:55:42;14.27;;;3.15;;
63008;SDS011;49099;28.428;-16.488;2023-04-15T08:58:12;17.98;;;3.00;;
63008;SDS011;49099;28.428;-16.488;2023-04-15T09:00:40;15.23;;;2.95;;
63008;SDS011;49099;28.428;-16.488;2023-04-15T09:03:07;20.05;;;3.53;;
63008;SDS011;49099;28.428;-16.488;2023-04-15T09:05:35;27.35;;;3.88;;
63008;SDS011;49099;28.428;-16.488;2023-04-15T09:08:03;17.67;;;3.88;;
63008;SDS011;49099;28.428;-16.488;2023-04-15T09:10:32;23.77;;;3.90;;
63008;SDS011;49099;28.428;-16.488;2023-04-15T09:12:59;25.63;;;4.07;;
63008;SDS011;49099;28.428;-16.488;2023-04-15T09:15:28;20.10;;;3.58;;
63008;SDS011;49099;28.428;-16.488;2023-04-15T09:17:58;22.45;;;3.75;;
63008;SDS011;49099;28.428;-16.488;2023-04-15T09:20:25;27.73;;;4.10;;
63008;SDS011;49099;28.428;-16.488;2023-04-15T09:22:53;22.08;;;3.95;;
63008;SDS011;49099;28.428;-16.488;2023-04-15T09:27:54;24.02;;;4.18;;
63008;SDS011;49099;28.428;-16.488;2023-04-15T09:30:27;24.02;;;4.00;;
63008;SDS011;49099;28.428;-16.488;2023-04-15T09:32:55;22.42;;;3.58;;
63008;SDS011;49099;28.428;-16.488;2023-04-15T09:35:24;27.45;;;3.45;;
63008;SDS011;49099;28.428;-16.488;2023-04-15T09:38:00;26.27;;;4.13;;
63008;SDS011;49099;28.428;-16.488;2023-04-15T09:40:30;22.50;;;3.60;;
63008;SDS011;49099;28.428;-16.488;2023-04-15T09:42:58;30.27;;;4.65;;
63008;SDS011;49099;28.428;-16.488;2023-04-15T09:45:27;33.95;;;4.57;;
63008;SDS011;49099;28.428;-16.488;2023-04-15T09:47:56;25.13;;;4.55;;
63008;SDS011;49099;28.428;-16.488;2023-04-15T09:50:28;32.83;;;4.88;;
63008;SDS011;49099;28.428;-16.488;2023-04-15T09:52:55;26.10;;;4.07;;
63008;SDS011;49099;28.428;-16.488;2023-04-15T09:55:22;31.30;;;4.60;;
63008;SDS011;49099;28.428;-16.488;2023-04-15T09:57:50;24.80;;;3.97;;
63008;SDS011;49099;28.428;-16.488;2023-04-15T10:00:17;24.75;;;3.95;;
63008;SDS011;49099;28.428;-16.488;2023-04-15T10:02:44;26.98;;;3.97;;
63008;SDS011;49099;28.428;-16.488;2023-04-15T10:05:14;21.98;;;4.43;;
63008;SDS011;49099;28.428;-16.488;2023-04-15T10:07:43;21.10;;;3.65;;
63008;SDS011;49099;28.428;-16.488;2023-04-15T10:10:11;21.75;;;3.60;;
63008;SDS011;49099;28.428;-16.488;2023-04-15T10:12:40;24.38;;;3.85;;
63008;SDS011;49099;28.428;-16.488;2023-04-15T10:15:11;29.48;;;4.53;;
63008;SDS011;49099;28.428;-16.488;2023-04-15T10:17:43;28.17;;;4.25;;
63008;SDS011;49099;28.428;-16.488;2023-04-15T10:20:11;24.83;;;4.32;;
63008;SDS011;49099;28.428;-16.488;2023-04-15T10:22:40;26.08;;;4.68;;
63008;SDS011;49099;28.428;-16.488;2023-04-15T10:25:09;26.42;;;4.25;;
63008;SDS011;49099;28.428;-16.488;2023-04-15T10:27:38;30.58;;;4.55;;
63008;SDS011;49099;28.428;-16.488;2023-04-15T10:30:07;25.58;;;4.38;;
63008;SDS011;49099;28.428;-16.488;2023-04-15T10:32:35;26.75;;;4.75;;
63008;SDS011;49099;28.428;-16.488;2023-04-15T10:35:03;24.08;;;4.20;;
63008;SDS011;49099;28.428;-16.488;2023-04-15T10:37:35;28.10;;;4.18;;
63008;SDS011;49099;28.428;-16.488;2023-04-15T10:40:24;24.23;;;3.65;;
63008;SDS011;49099;28.428;-16.488;2023-04-15T10:42:59;25.20;;;4.22;;
63008;SDS011;49099;28.428;-16.488;2023-04-15T10:45:34;24.23;;;4.40;;
63008;SDS011;49099;28.428;-16.488;2023-04-15T10:48:04;25.52;;;4.18;;
63008;SDS011;49099;28.428;-16.488;2023-04-15T10:50:33;25.80;;;4.10;;
63008;SDS011;49099;28.428;-16.488;2023-04-15T10:53:03;35.05;;;5.03;;
63008;SDS011;49099;28.428;-16.488;2023-04-15T10:55:31;22.50;;;4.15;;
63008;SDS011;49099;28.428;-16.488;2023-04-15T10:58:00;28.15;;;4.28;;
63008;SDS011;49099;28.428;-16.488;2023-04-15T11:00:29;21.23;;;4.30;;
63008;SDS011;49099;28.428;-16.488;2023-04-15T11:02:58;22.30;;;4.10;;
63008;SDS011;49099;28.428;-16.488;2023-04-15T11:08:08;27.27;;;3.85;;
63008;SDS011;49099;28.428;-16.488;2023-04-15T11:13:04;22.13;;;3.78;;
63008;SDS011;49099;28.428;-16.488;2023-04-15T11:15:42;22.60;;;3.85;;
63008;SDS011;49099;28.428;-16.488;2023-04-15T11:20:44;30.67;;;4.72;;
63008;SDS011;49099;28.428;-16.488;2023-04-15T11:23:30;22.60;;;3.83;;
63008;SDS011;49099;28.428;-16.488;2023-04-15T11:26:02;23.42;;;3.83;;
63008;SDS011;49099;28.428;-16.488;2023-04-15T11:28:32;23.45;;;3.67;;
63008;SDS011;49099;28.428;-16.488;2023-04-15T11:31:06;19.48;;;3.80;;
63008;SDS011;49099;28.428;-16.488;2023-04-15T11:33:36;22.83;;;3.70;;
63008;SDS011;49099;28.428;-16.488;2023-04-15T11:36:04;25.52;;;3.75;;
63008;SDS011;49099;28.428;-16.488;2023-04-15T11:38:32;19.67;;;3.70;;
63008;SDS011;49099;28.428;-16.488;2023-04-15T11:41:00;24.70;;;3.83;;
63008;SDS011;49099;28.428;-16.488;2023-04-15T11:43:27;22.33;;;3.70;;
63008;SDS011;49099;28.428;-16.488;2023-04-15T11:45:59;23.50;;;3.95;;
63008;SDS011;49099;28.428;-16.488;2023-04-15T11:48:28;26.40;;;4.38;;
63008;SDS011;49099;28.428;-16.488;2023-04-15T11:51:00;20.00;;;3.92;;
63008;SDS011;49099;28.428;-16.488;2023-04-15T11:56:04;26.65;;;4.28;;
63008;SDS011;49099;28.428;-16.488;2023-04-15T11:58:32;23.13;;;4.30;;
63008;SDS011;49099;28.428;-16.488;2023-04-15T12:01:03;21.45;;;4.18;;
63008;SDS011;49099;28.428;-16.488;2023-04-15T12:03:38;24.35;;;3.95;;
63008;SDS011;49099;28.428;-16.488;2023-04-15T12:06:19;26.17;;;4.25;;
63008;SDS011;49099;28.428;-16.488;2023-04-15T12:08:57;26.70;;;4.15;;
63008;SDS011;49099;28.428;-16.488;2023-04-15T12:11:50;17.90;;;3.55;;
63008;SDS011;49099;28.428;-16.488;2023-04-15T12:14:24;19.08;;;3.90;;
63008;SDS011;49099;28.428;-16.488;2023-04-15T12:17:04;23.98;;;4.07;;
63008;SDS011;49099;28.428;-16.488;2023-04-15T12:19:37;21.08;;;3.88;;
63008;SDS011;49099;28.428;-16.488;2023-04-15T12:22:16;31.10;;;4.38;;
63008;SDS011;49099;28.428;-16.488;2023-04-15T12:24:43;32.10;;;4.15;;
63008;SDS011;49099;28.428;-16.488;2023-04-15T12:27:15;27.52;;;4.43;;
63008;SDS011;49099;28.428;-16.488;2023-04-15T12:29:43;21.65;;;3.85;;
63008;SDS011;49099;28.428;-16.488;2023-04-15T12:32:19;20.70;;;3.65;;
63008;SDS011;49099;28.428;-16.488;2023-04-15T12:34:50;24.25;;;4.32;;
63008;SDS011;49099;28.428;-16.488;2023-04-15T12:37:18;26.90;;;4.28;;
63008;SDS011;49099;28.428;-16.488;2023-04-15T12:39:47;22.25;;;4.35;;
63008;SDS011;49099;28.428;-16.488;2023-04-15T12:42:15;26.73;;;4.78;;
63008;SDS011;49099;28.428;-16.488;2023-04-15T12:44:43;26.80;;;4.20;;
63008;SDS011;49099;28.428;-16.488;2023-04-15T12:47:11;23.45;;;3.88;;
63008;SDS011;49099;28.428;-16.488;2023-04-15T12:49:38;24.23;;;3.92;;
63008;SDS011;49099;28.428;-16.488;2023-04-15T12:52:06;20.38;;;4.10;;
63008;SDS011;49099;28.428;-16.488;2023-04-15T12:54:34;27.60;;;4.57;;
63008;SDS011;49099;28.428;-16.488;2023-04-15T12:57:01;25.08;;;3.97;;
63008;SDS011;49099;28.428;-16.488;2023-04-15T12:59:32;25.38;;;4.40;;
63008;SDS011;49099;28.428;-16.488;2023-04-15T13:02:00;22.75;;;3.78;;
63008;SDS011;49099;28.428;-16.488;2023-04-15T13:04:28;28.45;;;4.47;;
63008;SDS011;49099;28.428;-16.488;2023-04-15T13:06:56;29.05;;;4.13;;
63008;SDS011;49099;28.428;-16.488;2023-04-15T13:09:24;19.25;;;3.75;;
63008;SDS011;49099;28.428;-16.488;2023-04-15T13:11:51;21.55;;;4.18;;
63008;SDS011;49099;28.428;-16.488;2023-04-15T13:14:20;25.55;;;3.90;;
63008;SDS011;49099;28.428;-16.488;2023-04-15T13:16:47;23.52;;;4.07;;
63008;SDS011;49099;28.428;-16.488;2023-04-15T13:19:14;25.67;;;4.20;;
63008;SDS011;49099;28.428;-16.488;2023-04-15T13:21:41;29.13;;;4.35;;
63008;SDS011;49099;28.428;-16.488;2023-04-15T13:24:08;29.00;;;4.70;;
63008;SDS011;49099;28.428;-16.488;2023-04-15T13:26:36;24.40;;;3.90;;
63008;SDS011;49099;28.428;-16.488;2023-04-15T13:29:03;33.42;;;5.20;;
63008;SDS011;49099;28.428;-16.488;2023-04-15T13:31:30;25.52;;;4.45;;
63008;SDS011;49099;28.428;-16.488;2023-04-15T13:33:58;25.73;;;4.65;;
63008;SDS011;49099;28.428;-16.488;2023-04-15T13:36:25;29.48;;;4.38;;
63008;SDS011;49099;28.428;-16.488;2023-04-15T13:38:53;17.00;;;3.97;;
63008;SDS011;49099;28.428;-16.488;2023-04-15T13:41:20;28.35;;;4.50;;
63008;SDS011;49099;28.428;-16.488;2023-04-15T13:43:47;22.77;;;4.25;;
63008;SDS011;49099;28.428;-16.488;2023-04-15T13:46:14;20.63;;;4.20;;
63008;SDS011;49099;28.428;-16.488;2023-04-15T13:48:42;20.38;;;3.53;;
63008;SDS011;49099;28.428;-16.488;2023-04-15T13:51:09;22.33;;;3.38;;
63008;SDS011;49099;28.428;-16.488;2023-04-15T13:53:36;24.25;;;3.58;;
63008;SDS011;49099;28.428;-16.488;2023-04-15T13:56:05;31.83;;;5.10;;
63008;SDS011;49099;28.428;-16.488;2023-04-15T13:58:34;22.50;;;4.07;;
63008;SDS011;49099;28.428;-16.488;2023-04-15T14:01:02;28.17;;;4.40;;
63008;SDS011;49099;28.428;-16.488;2023-04-15T14:03:33;29.67;;;4.85;;
63008;SDS011;49099;28.428;-16.488;2023-04-15T14:06:02;24.15;;;4.03;;
63008;SDS011;49099;28.428;-16.488;2023-04-15T14:08:30;23.60;;;3.90;;
63008;SDS011;49099;28.428;-16.488;2023-04-15T14:10:57;23.25;;;3.83;;
63008;SDS011;49099;28.428;-16.488;2023-04-15T14:13:24;26.30;;;4.40;;
63008;SDS011;49099;28.428;-16.488;2023-04-15T14:15:51;29.83;;;4.38;;
63008;SDS011;49099;28.428;-16.488;2023-04-15T14:18:18;25.33;;;4.28;;
63008;SDS011;49099;28.428;-16.488;2023-04-15T14:20:45;27.35;;;4.40;;
63008;SDS011;49099;28.428;-16.488;2023-04-15T14:23:12;23.73;;;4.07;;
63008;SDS011;49099;28.428;-16.488;2023-04-15T14:25:40;21.42;;;3.85;;
63008;SDS011;49099;28.428;-16.488;2023-04-15T14:28:07;26.55;;;4.65;;
63008;SDS011;49099;28.428;-16.488;2023-04-15T14:30:34;26.15;;;4.45;;